Terminal Aerodrome Forecast
Issued by NWS

Home | Current Version | Previous Version | Graphics & Text | Print | Product List | Glossary On
Versions: 1 2 3 4 5 6 7 8 9 10 11 12 13 14 15 16 17 18
287
FTUS43 KABR 061137
TAFPIR
TAF
KPIR 061137Z 0612/0712 23013KT P6SM BKN200
     FM062200 27019KT P6SM BKN150
     FM070400 29022G32KT P6SM BKN150
     FM070800 30030G40KT P6SM BKN150=

USA.gov is the U.S. government's official web portal to all federal, state and local government web resources and services.